x

8454000 - Providence, Ri (foxr1) Weather Station

2:30 - Mon 1st Sep 2014 All times are EDT. -4 hours from GMT.

  • Wind
    1mph, 5mph gusts
  • Sea Temp 72°f
  • Luft Temp 83°f
  • Sea Pressure 1013mb
  • 8454000 - Providence, Ri
  • 8454000 - Providence, Ri

More Historic Weather Station data

Upgrade to MSW Pro to gain access to the past 30 days of data for over 8000 Wavebouys and Weather Stations around the globe.

Join Pro

Comparision Forecast

View Surf forecast
   
Mo 09/01 2:30 1 5 mph 1013mb 72f 83f
2:24 8 10 mph 1013.1mb 72f 85f
2:18 10 15 mph 1013mb 72f 80f
2:12 13 15 mph 1013.2mb 72f 81f
2:06 7 14 mph 1013.2mb 72f 81f
2:00 11 14 mph 1013.3mb 72f 81f
1:54 11 16 mph 1013.2mb 72f 80f
1:48 11 15 mph 1013.2mb 72f 80f
1:42 11 17 mph 1013.2mb 72f 80f
1:36 13 15 mph 1013.2mb 72f 80f
1:30 11 14 mph 1013.4mb 72f 80f
1:24 14 15 mph 1013.4mb 72f 80f
1:18 13 15 mph 1013.4mb 72f 80f
1:12 14 15 mph 1013.5mb 72f 80f
1:06 11 15 mph 1013.5mb 72f 79f
1:00 10 15 mph 1013.4mb 72f 80f
12:54 13 15 mph 1013.3mb 72f 79f
12:48 11 15 mph 1013.4mb 72f 79f
12:42 15 17 mph 1013.5mb 72f 79f
12:36 14 17 mph 1013.6mb 72f 79f
12:30 15 17 mph 1013.6mb 72f 79f
12:24 10 14 mph 1013.6mb 72f 79f
12:18 11 13 mph 1013.7mb 72f 79f
12:12 13 15 mph 1013.9mb 72f 78f
12:06 11 14 mph 1014mb 72f 78f
12:00 11 13 mph 1014.1mb 72f 78f
11:54 10 11 mph 1014.1mb 72f 78f
11:48 10 11 mph 1014.1mb 72f 78f
11:42 8 10 mph 1014.1mb 72f 78f
11:36 8 11 mph 1014.2mb 72f 78f
11:30 10 11 mph 1014.3mb 72f 78f
11:24 11 14 mph 1014.3mb 72f 78f
11:18 13 15 mph 1014.4mb 72f 77f
11:12 13 14 mph 1014.4mb 72f 77f
11:06 10 11 mph 1014.4mb 72f 77f
11:00 9 10 mph 1014.5mb 72f 77f
10:54 10 11 mph 1014.6mb 72f 77f
10:48 10 11 mph 1014.5mb 72f 76f
10:42 9 10 mph 1014.6mb 72f 76f
10:36 9 10 mph 1014.6mb 72f 76f
10:30 8 10 mph 1014.5mb 72f 76f
10:24 8 9 mph 1014.6mb 72f 76f
10:18 7 8 mph 1014.7mb 73f 76f
10:12 7 8 mph 1014.7mb 73f 76f
10:06 6 7 mph 1014.6mb 73f 76f
10:00 5
mph
1014.6mb 73f 76f
9:54 5 6 mph 1014.6mb 73f 76f
9:48 6 7 mph 1014.5mb 73f 76f
9:42 6 7 mph 1014.5mb 73f 76f
9:36 3 5 mph 1014.5mb 73f 77f
9:30 2 3 mph 1014.5mb 73f 78f
9:24 1 3 mph 1014.6mb 73f 78f
9:18  -  2 mph 1014.7mb 73f 79f
9:12 1 3 mph 1014.8mb 73f 79f
9:06 2 5 mph 1014.7mb 73f 77f
9:00 3 6 mph 1014.7mb 73f 77f
8:54 3 7 mph 1014.7mb 73f 77f
8:48  -  3 mph 1014.7mb 73f 77f
8:42 1 5 mph 1014.6mb 73f 76f
8:36 1 2 mph 1014.7mb 73f 75f
8:30  -  3 mph 1014.8mb 73f 75f
8:24 3 5 mph 1014.9mb 73f 74f
8:18 3 6 mph 1014.9mb 73f 74f
8:12 3 6 mph 1014.9mb 73f 74f
8:06 2 6 mph 1014.9mb 73f 74f
8:00 5 6 mph 1014.9mb 73f 74f
7:54 5 7 mph 1014.8mb 73f 74f
7:48 2 5 mph 1014.8mb 73f 74f
7:42 3 5 mph 1014.8mb 73f 74f
7:36 5
mph
1014.9mb 73f 74f
7:30 2
mph
1014.9mb 73f 73f
7:24  -  1 mph 1014.9mb 73f 73f
7:18  -  3 mph 1015mb 73f 73f
7:12 1 3 mph 1015mb 73f 73f
7:06 3 6 mph 1014.9mb 73f 73f
7:00 3 5 mph 1014.9mb 73f 73f
6:54 3 6 mph 1014.9mb 73f 73f
6:48 3 5 mph 1014.9mb 73f 73f
6:42 3 6 mph 1014.9mb 73f 73f
6:36 3 6 mph 1014.9mb 73f 73f
6:30 6 7 mph 1015mb 73f 73f
6:24 5 6 mph 1015mb 73f 73f
6:18 3 6 mph 1014.9mb 73f 73f
6:12 5 6 mph 1014.9mb 73f 73f
6:06 3 6 mph 1014.8mb 73f 73f
6:00 5 6 mph 1014.7mb 73f 73f
5:54 5
mph
1014.6mb 73f 73f
5:48 2 3 mph 1014.6mb 73f 73f
5:42 2 3 mph 1014.5mb 73f 73f
5:36 2 3 mph 1014.5mb 73f 73f
5:30 2 5 mph 1014.5mb 73f 73f
5:24 3 5 mph 1014.5mb 73f 73f
5:18 2
mph
1014.4mb 73f 73f
5:12 1 5 mph 1014.4mb 73f 73f
5:06 3
mph
1014.4mb 73f 73f
5:00 3 5 mph 1014.3mb 73f 73f
4:54 3 5 mph 1014.3mb 73f 73f
4:48 3 5 mph 1014.2mb 73f 74f
4:42 2
mph
1014.2mb 73f 74f
4:36  -  1 mph 1014.1mb 73f 74f
4:30  -  2 mph 1014mb 73f 74f
4:24 1 2 mph 1014mb 73f 74f
4:18 2 7 mph 1013.8mb 73f 74f
4:12 5 8 mph 1013.8mb 73f 74f
4:06 5 7 mph 1013.8mb 73f 74f
4:00 6 8 mph 1013.6mb 73f 74f
3:54 5 8 mph 1013.7mb 73f 74f
3:48 7 9 mph 1013.7mb 73f 74f
3:42 7 9 mph 1013.8mb 73f 74f
3:36 7 8 mph 1013.9mb 73f 74f
3:30 6 8 mph 1013.8mb 73f 74f
3:24 7 8 mph 1013.8mb 73f 74f
3:18 5 7 mph 1013.7mb 73f 74f
3:12 7 8 mph 1013.8mb 73f 74f
3:06 6 8 mph 1013.8mb 73f 74f
3:00 6 8 mph 1014mb 73f 74f
2:54 6 9 mph 1014mb 73f 74f
2:48 6 8 mph 1014mb 73f 74f
2:42 7 9 mph 1013.9mb 73f 74f
2:36 6 9 mph 1013.9mb 72f 74f
2:30 6 8 mph 1013.9mb 72f 74f
2:24 6 8 mph 1013.9mb 72f 74f
2:18 3 6 mph 1014mb 72f 74f
2:12 5 6 mph 1014mb 72f 74f
2:06 5 6 mph 1014mb 72f 74f
2:00 6 7 mph 1014.1mb 72f 74f
1:54 5 6 mph 1014mb 72f 74f
1:48 3 5 mph 1013.7mb 72f 74f
1:42 2 5 mph 1013.8mb 72f 74f
1:36 3 5 mph 1013.9mb 72f 74f
1:30 3 6 mph 1013.9mb 72f 74f
1:24 2 3 mph 1013.8mb 72f 74f
1:18 2 3 mph 1013.7mb 72f 74f
1:12 2 3 mph 1013.8mb 72f 74f
1:06 2 5 mph 1013.8mb 72f 74f
1:00 2 5 mph 1013.8mb 72f 74f
12:54 6 7 mph 1013.9mb 72f 74f
12:48 5 6 mph 1014mb 72f 74f
12:42 5 7 mph 1014mb 72f 74f
12:36 3 7 mph 1014mb 72f 74f
12:30 6 8 mph 1014mb 72f 74f
12:24 6 9 mph 1014.1mb 72f 74f
12:18 6 9 mph 1014mb 72f 74f
12:12 6 7 mph 1014mb 72f 74f
12:06 5 7 mph 1014.1mb 72f 74f
12:00 6 8 mph 1014.2mb 72f 74f
So 08/31 11:54 5 7 mph 1014.1mb 72f 73f
11:48 1 3 mph 1014.2mb 72f 74f
11:42 3 5 mph 1014.3mb 72f 73f
11:36 1 2 mph 1014.1mb 72f 73f
11:30 1 2 mph 1014.1mb 72f 73f
11:24 2 5 mph 1014mb 72f 73f
11:18 3 6 mph 1014.1mb 72f 73f
11:12 3 6 mph 1014.1mb 72f 74f
11:06 3 7 mph 1014.1mb 72f 73f
11:00 7 9 mph 1014mb 72f 73f
10:54 7 9 mph 1014mb 72f 73f
10:48 7 11 mph 1014.1mb 72f 74f
10:42 5 10 mph 1014.1mb 72f 74f
10:36 6 9 mph 1014mb 72f 74f
10:30 5 10 mph 1013.9mb 72f 74f
10:24 7 10 mph 1013.8mb 72f 74f
10:18 7 9 mph 1014mb 72f 74f
10:12 6 8 mph 1014.1mb 72f 74f
10:06 7 10 mph 1014.4mb 72f 74f
10:00 6 11 mph 1014.5mb 72f 74f
9:54 7 11 mph 1014.4mb 72f 74f
9:48 6 10 mph 1014.4mb 73f 74f
9:42 5 7 mph 1014.4mb 73f 74f
9:36 7 13 mph 1014.5mb 73f 74f
9:30 5 8 mph 1014.7mb 73f 74f
9:24 5 10 mph 1014.7mb 72f 74f
9:18 7 14 mph 1014.7mb 72f 74f
9:12 6 10 mph 1014.7mb 72f 74f
9:06 5 10 mph 1014.7mb 72f 74f
9:00 8 14 mph 1014.6mb 72f 74f
8:54 8 10 mph 1014.3mb 72f 74f
8:48 5 15 mph 1014.1mb 72f 75f
8:42 8 11 mph 1014.3mb 72f 75f
8:36 8 10 mph 1014.6mb 72f 75f
8:30 7 10 mph 1014.7mb 72f 75f
8:24 7 8 mph 1014.8mb 72f 75f
8:18 7 9 mph 1014.7mb 72f 75f
8:12 8 10 mph 1014.5mb 72f 75f
8:06 6 9 mph 1014.5mb 72f 75f
8:00 7 10 mph 1014.6mb 72f 75f
7:54 5 9 mph 1014.5mb 72f 76f
7:48 7 13 mph 1014.5mb 72f 76f
7:42 8 11 mph 1014.5mb 72f 76f
7:36 9 11 mph 1014.5mb 72f 76f
7:00 9 16 mph 1014.6mb 72f 77f
6:54 9 13 mph 1014.4mb 72f 77f
6:48 11 14 mph 1014.2mb 72f 77f
6:42 8 13 mph 1014.4mb 72f 78f
6:36 8 11 mph 1014.6mb 72f 79f
6:30 7 15 mph 1014.6mb 72f 78f
6:24 10 13 mph 1014.7mb 72f 78f
6:18 10 13 mph 1014.5mb 72f 78f
6:12 10 14 mph 1014.5mb 72f 79f
6:06 9 11 mph 1014.7mb 72f 78f
6:00 10 11 mph 1014.6mb 72f 78f
5:54 8 13 mph 1014.7mb 72f 78f
5:48 13 16 mph 1014.6mb 72f 78f
5:42 13 15 mph 1014.6mb 72f 77f
5:36 11 15 mph 1014.6mb 72f 77f
5:30 11 15 mph 1014.6mb 72f 78f
5:24 11 13 mph 1014.4mb 72f 79f
5:18 9 14 mph 1014.5mb 72f 81f
5:12 7 11 mph 1014.5mb 72f 82f
5:06 10 16 mph 1014.5mb 72f 82f
5:00 8 14 mph 1014.5mb 72f 82f
4:54 8 13 mph 1014.5mb 72f 80f
4:48 8 13 mph 1014.5mb 72f 82f
4:42 9 14 mph 1014.4mb 72f 82f
4:36 8 14 mph 1014.3mb 72f 80f
4:30 13 14 mph 1014.4mb 72f 78f
4:24 7 11 mph 1014.4mb 72f 83f
4:18 9 15 mph 1014.5mb 71f 84f
4:12 8 13 mph 1014.6mb 71f 85f
4:06 11 15 mph 1014.6mb 71f 84f
4:00 9 14 mph 1014.6mb 71f 84f
3:54 11 16 mph 1014.7mb 71f 83f
3:48 8 13 mph 1014.8mb 71f 84f
3:42 10 14 mph 1015mb 71f 83f
3:36 8 13 mph 1015.1mb 72f 82f
3:30 11 15 mph 1015.2mb 72f 82f
3:24 7 14 mph 1015.2mb 72f 82f
3:18 11 14 mph 1015.2mb 72f 82f
3:12 8 14 mph 1015.2mb 72f 82f
3:06 7 10 mph 1015.2mb 72f 82f
3:00 8 14 mph 1015.4mb 71f 82f
2:54 13 20 mph 1015.5mb 71f 81f
2:48 9 15 mph 1015.5mb 71f 81f
2:42 11 16 mph 1015.5mb 71f 81f
2:36 8 14 mph 1015.6mb 71f 81f
2:30 8 11 mph 1015.8mb 71f 81f
2:24 8 15 mph 1015.9mb 71f 81f
2:18 10 14 mph 1015.9mb 71f 81f
2:12 8 14 mph 1015.9mb 71f 81f
2:06 7 10 mph 1016mb 71f 81f
2:00 8 14 mph 1016.1mb 71f 80f
1:54 9 14 mph 1016.2mb 71f 80f
1:48 9 13 mph 1016.3mb 71f 80f
1:42 8 14 mph 1016.4mb 71f 80f
1:36 7 11 mph 1016.4mb 71f 80f
1:30 8 15 mph 1016.4mb 71f 80f
1:24 10 14 mph 1016.4mb 71f 80f
1:18 10 14 mph 1016.5mb 71f 79f
1:12 10 15 mph 1016.5mb 71f 80f
1:06 10 15 mph 1016.6mb 71f 79f
1:00 8 11 mph 1016.6mb 71f 80f
12:54 6 13 mph 1016.6mb 71f 80f
12:48 8 11 mph 1016.7mb 71f 79f
12:42 8 14 mph 1016.8mb 71f 78f
12:36 8 13 mph 1016.8mb 71f 79f
12:30 8 14 mph 1017mb 71f 79f
12:24 11 15 mph 1017mb 71f 78f
12:18 7 17 mph 1017mb 71f 79f
12:12 8 14 mph 1017.1mb 71f 79f
12:06 9 14 mph 1017.1mb 71f 79f
12:00 13 20 mph 1017.1mb 71f 78f
11:54 14 18 mph 1017.2mb 71f 78f
11:48 13 17 mph 1017.3mb 71f 78f
11:42 11 16 mph 1017.3mb 71f 78f
11:36 14 23 mph 1017.3mb 71f 78f
11:30 13 18 mph 1017.5mb 71f 78f
11:24 13 20 mph 1017.5mb 71f 78f
11:18 11 18 mph 1017.5mb 71f 78f
11:12 11 17 mph 1017.6mb 71f 78f
11:06 9 14 mph 1017.7mb 71f 78f
11:00 10 16 mph 1017.7mb 71f 78f
10:54 9 18 mph 1017.8mb 71f 78f
10:48 14 20 mph 1017.8mb 71f 78f
10:42 14 20 mph 1017.8mb 71f 78f
10:36 10 18 mph 1018mb 71f 78f
10:30 11 16 mph 1018.1mb 71f 78f
10:24 8 13 mph 1018.1mb 71f 78f
10:18 8 14 mph 1018mb 71f 78f
10:12 8 16 mph 1018mb 71f 78f
10:06 13 16 mph 1018mb 71f 78f
10:00 7 16 mph 1018.1mb 71f 78f
9:54 8 16 mph 1018.1mb 71f 78f
9:48 9 16 mph 1018.2mb 71f 77f
9:42 14 20 mph 1018.3mb 71f 77f
9:36 8 16 mph 1018.2mb 71f 77f
9:30 10 16 mph 1018.3mb 71f 76f
9:24 10 16 mph 1018.4mb 71f 76f
9:18 10 15 mph 1018.4mb 71f 76f
9:12 10 17 mph 1018.4mb 71f 76f
9:06 10 14 mph 1018.4mb 71f 76f
9:00 9 13 mph 1018.4mb 71f 76f
8:54 8 17 mph 1018.4mb 71f 75f
8:48 10 16 mph 1018.4mb 71f 75f
8:42 9 15 mph 1018.5mb 71f 75f
8:36 10 14 mph 1018.5mb 71f 75f
8:30 7 11 mph 1018.4mb 71f 75f
8:24 8 11 mph 1018.4mb 71f 74f
8:18 9 15 mph 1018.4mb 71f 74f
8:12 7 9 mph 1018.5mb 71f 73f
8:06 5 9 mph 1018.6mb 71f 73f
8:00 7 9 mph 1018.6mb 71f 73f
7:54 7 11 mph 1018.6mb 71f 73f
7:48 8 11 mph 1018.5mb 71f 72f
7:42 8 11 mph 1018.6mb 71f 72f
7:36 6 11 mph 1018.6mb 71f 72f
7:30 5 14 mph 1018.6mb 71f 72f
7:24 7 11 mph 1018.8mb 71f 72f
7:18 8 13 mph 1018.8mb 71f 72f
7:12 7 10 mph 1018.8mb 71f 72f
7:06 6 11 mph 1018.8mb 71f 72f
7:00 7 11 mph 1018.9mb 71f 72f
6:54 7 10 mph 1018.9mb 71f 72f
6:48 6 9 mph 1018.9mb 71f 71f
6:42 6 9 mph 1018.9mb 71f 71f
6:36 8 11 mph 1018.9mb 71f 71f
6:30 9 11 mph 1018.9mb 71f 71f
6:24 6 11 mph 1018.8mb 71f 71f
6:18 7 9 mph 1018.9mb 71f 71f
6:12 5 8 mph 1019mb 71f 71f
6:06 6 7 mph 1019mb 71f 71f
6:00 6 9 mph 1019mb 71f 71f
5:54 7 9 mph 1018.9mb 71f 71f
5:48 6 8 mph 1018.9mb 71f 71f
5:42 6 8 mph 1018.9mb 71f 71f
5:36 7 10 mph 1018.9mb 71f 71f
5:30 6 10 mph 1018.9mb 71f 71f
5:24 6 13 mph 1018.9mb 71f 71f
5:18 8 13 mph 1018.9mb 71f 71f
5:12 6 10 mph 1018.9mb 71f 71f
5:06 7 11 mph 1018.9mb 71f 71f
5:00 8 14 mph 1018.9mb 71f 71f
4:54 8 11 mph 1019mb 71f 71f
4:48 8 14 mph 1019mb 71f 71f
4:42 6 13 mph 1019.1mb 71f 71f
4:36 7 11 mph 1019mb 71f 70f
4:30 6 9 mph 1019mb 71f 70f
4:24 7 9 mph 1019.1mb 71f 70f
4:18 7 10 mph 1019.1mb 71f 70f
4:12 7 14 mph 1019mb 71f 70f
4:06 5 11 mph 1019mb 71f 70f
4:00 6 10 mph 1019.1mb 71f 70f
3:54 8 10 mph 1019.2mb 71f 70f
3:48 6 9 mph 1019.3mb 71f 70f
3:42 6 10 mph 1019.4mb 71f 70f
3:36 3 8 mph 1019.3mb 71f 70f
3:30 7 11 mph 1019.4mb 71f 70f
3:24 7 9 mph 1019.5mb 71f 69f
3:18 6 8 mph 1019.5mb 71f 69f
3:12 7 10 mph 1019.5mb 71f 69f
3:06 6 9 mph 1019.6mb 72f 69f
3:00 5 8 mph 1019.6mb 71f 69f
2:54 6 9 mph 1019.6mb 71f 69f
2:48 6 9 mph 1019.6mb 71f 69f
2:42 8 9 mph 1019.6mb 71f 68f
2:36 8 10 mph 1019.6mb 71f 68f
2:30 8 10 mph 1019.6mb 71f 68f
2:24 6 11 mph 1019.7mb 71f 68f
2:18 6 10 mph 1019.8mb 71f 68f
2:12 6 11 mph 1019.9mb 71f 68f
2:06 8 11 mph 1020mb 71f 68f
2:00 7 11 mph 1019.9mb 71f 68f
1:54 6 10 mph 1019.9mb 71f 68f
1:48 6 11 mph 1020mb 71f 68f
1:42 8 11 mph 1020mb 71f 68f
1:36 8 10 mph 1020.2mb 71f 68f
1:30 7 10 mph 1020.2mb 71f 68f
1:24 6 10 mph 1020.2mb 71f 68f
1:18 6 7 mph 1020.2mb 71f 67f
1:12 5 9 mph 1020.2mb 71f 67f
1:06 5 8 mph 1020.3mb 71f 67f
1:00 5 8 mph 1020.3mb 71f 67f
12:54 5 9 mph 1020.4mb 71f 67f
12:48 6 8 mph 1020.4mb 71f 67f
12:42 3 6 mph 1020.4mb 71f 67f
12:36 6 8 mph 1020.4mb 71f 67f
12:30 3 7 mph 1020.5mb 71f 67f
12:24 3 7 mph 1020.4mb 71f 67f
12:18 5 6 mph 1020.4mb 71f 66f
12:12 3 6 mph 1020.5mb 71f 66f
12:06 6 7 mph 1020.4mb 71f 67f
12:00 3 5 mph 1020.4mb 71f 66f
Sa 08/30 11:54 5 6 mph 1020.5mb 71f 66f
11:48 5 6 mph 1020.6mb 71f 67f
11:42 3 7 mph 1020.6mb 71f 67f
11:36 5 8 mph 1020.6mb 71f 67f
11:30 5 6 mph 1020.7mb 71f 67f
11:24 3 7 mph 1020.8mb 71f 67f
11:18 6 9 mph 1020.8mb 71f 67f
11:12 5 8 mph 1020.8mb 71f 67f
11:06 6 8 mph 1020.9mb 71f 67f
11:00 3 8 mph 1020.8mb 71f 67f
10:54 6 8 mph 1020.8mb 71f 67f
10:48 6 8 mph 1020.9mb 71f 67f
10:42 6 9 mph 1020.9mb 71f 67f
10:36 7 9 mph 1020.9mb 71f 67f
10:30 6 8 mph 1020.9mb 71f 67f
10:24 6 8 mph 1021mb 71f 67f
10:18 5 7 mph 1021.1mb 71f 67f
10:12 5 7 mph 1021.1mb 71f 67f
10:06 5 7 mph 1021.1mb 71f 67f
10:00 5 7 mph 1021.1mb 71f 67f
9:54 5 8 mph 1021.1mb 71f 67f
9:48 5 9 mph 1021.1mb 71f 67f
9:42 5 8 mph 1021.1mb 71f 67f
9:36 5 9 mph 1021.2mb 71f 67f
9:30 5 8 mph 1021.1mb 71f 68f
9:24 6 9 mph 1021mb 71f 68f
9:18 8 10 mph 1021.1mb 71f 68f
9:12 8 11 mph 1021.1mb 71f 68f
9:06 6 9 mph 1021.1mb 71f 68f
9:00 6 9 mph 1021.1mb 71f 68f
8:54 8 13 mph 1021.1mb 71f 68f
8:48 7 9 mph 1021.1mb 71f 68f
8:42 6 9 mph 1021.1mb 71f 68f
8:36 7 9 mph 1021.1mb 72f 69f
8:30 8 10 mph 1021.1mb 72f 69f
8:24 9 13 mph 1021.1mb 72f 69f
8:18 7 10 mph 1021mb 72f 69f
8:12 8 11 mph 1021mb 72f 69f
8:06 7 13 mph 1020.9mb 72f 69f
8:00 8 13 mph 1020.9mb 72f 69f
7:54 8 11 mph 1020.9mb 72f 69f
7:48 9 13 mph 1020.9mb 72f 69f
7:42 8 13 mph 1020.9mb 72f 70f
7:36 9 14 mph 1021mb 72f 70f
7:30 11 15 mph 1021mb 72f 70f
7:24 9 13 mph 1021mb 71f 70f
7:18 9 13 mph 1021mb 71f 70f
7:12 8 13 mph 1021.1mb 72f 70f
7:06 10 14 mph 1021.1mb 72f 70f
7:00 13 15 mph 1021.1mb 72f 71f
6:54 8 14 mph 1021.1mb 71f 71f
6:48 10 16 mph 1021.2mb 71f 71f
6:42 9 15 mph 1021.3mb 71f 72f
6:36 11 17 mph 1021.3mb 71f 71f
6:30 10 14 mph 1021.2mb 71f 72f
6:24 10 16 mph 1021.2mb 72f 72f
6:18 13 15 mph 1021.2mb 72f 72f
6:12 13 16 mph 1021.3mb 72f 72f
6:06 10 20 mph 1021.2mb 72f 72f
6:00 11 17 mph 1021.1mb 72f 72f
5:54 15 20 mph 1021.1mb 72f 71f
5:48 15 20 mph 1021.2mb 72f 71f
5:42 15 20 mph 1021.2mb 72f 71f
5:36 10 22 mph 1021.2mb 72f 72f
5:30 15 21 mph 1021.2mb 72f 71f
5:24 16 22 mph 1021.3mb 72f 71f
5:18 11 22 mph 1021.3mb 72f 72f
5:12 15 23 mph 1021.4mb 72f 71f
5:06 17 22 mph 1021.5mb 72f 71f
5:00 14 16 mph 1021.5mb 72f 72f
4:54 13 18 mph 1021.6mb 72f 72f
4:48 17 22 mph 1021.6mb 72f 71f
4:42 17 21 mph 1021.7mb 72f 71f
4:36 18 23 mph 1021.7mb 72f 71f
4:30 18 24 mph 1021.7mb 72f 70f
4:24 15 22 mph 1021.8mb 72f 71f
4:18 10 21 mph 1021.9mb 71f 73f
4:12 18 23 mph 1021.9mb 71f 72f
4:06 17 23 mph 1021.9mb 71f 70f
4:00 21 25 mph 1022.1mb 71f 70f
3:54 16 23 mph 1022.1mb 71f 71f
3:48 18 25 mph 1022.2mb 71f 70f
3:42 21 24 mph 1022.3mb 71f 70f
3:36 18 25 mph 1022.3mb 71f 70f
3:30 16 23 mph 1022.4mb 71f 71f
3:24 18 24 mph 1022.5mb 71f 71f
3:18 15 25 mph 1022.5mb 71f 71f
3:12 15 25 mph 1022.5mb 71f 71f
3:06 20 23 mph 1022.5mb 71f 70f
3:00 18 24 mph 1022.6mb 71f 71f
2:54 20 23 mph 1022.6mb 71f 70f
2:48 20 24 mph 1022.6mb 71f 70f
2:42 20 23 mph 1022.8mb 71f 70f
2:36 20 24 mph 1022.8mb 71f 70f
2:30 18 23 mph 1023mb 71f 69f
2:24 17 22 mph 1023mb 71f 70f
2:18 20 24 mph 1023.1mb 71f 69f
2:12 20 24 mph 1023.2mb 71f 69f
2:06 16 22 mph 1023.3mb 71f 69f
2:00 15 22 mph 1023.3mb 71f 69f
1:54 17 21 mph 1023.3mb 71f 69f
1:48 16 20 mph 1023.4mb 71f 69f
1:42 17 22 mph 1023.6mb 71f 69f
1:36 14 21 mph 1023.6mb 71f 69f
1:30 16 21 mph 1023.7mb 71f 69f
1:24 14 20 mph 1023.7mb 71f 69f
1:18 15 21 mph 1023.7mb 71f 69f
1:12 14 20 mph 1023.8mb 71f 69f
1:06 16 18 mph 1023.8mb 71f 69f
1:00 15 20 mph 1023.8mb 71f 69f
12:54 14 18 mph 1023.8mb 71f 69f
12:48 15 20 mph 1023.9mb 71f 69f
12:42 13 15 mph 1024mb 71f 69f
12:36 13 18 mph 1024.1mb 71f 69f
12:30 16 18 mph 1024.2mb 71f 69f
12:24 14 17 mph 1024.2mb 71f 69f
12:18 15 17 mph 1024.3mb 71f 69f
12:12 14 21 mph 1024.4mb 71f 69f
12:06 16 20 mph 1024.5mb 71f 68f
12:00 13 18 mph 1024.5mb 71f 69f
11:54 14 20 mph 1024.6mb 71f 68f
11:48 13 17 mph 1024.6mb 71f 68f
11:42 13 16 mph 1024.7mb 71f 68f
11:36 13 16 mph 1024.8mb 71f 68f
11:30 11 17 mph 1024.8mb 71f 68f
11:24 10 15 mph 1024.8mb 71f 68f
11:18 10 15 mph 1024.9mb 71f 68f
11:12 13 15 mph 1025mb 71f 69f
11:06 13 15 mph 1025mb 71f 68f
11:00 13 15 mph 1025.1mb 71f 68f
10:54 6 11 mph 1025mb 71f 69f
10:48 9 14 mph 1025mb 71f 68f
10:42 11 15 mph 1025mb 71f 68f
10:36 14 17 mph 1025mb 71f 67f
10:30 6 14 mph 1025mb 71f 68f
10:24 10 15 mph 1025.1mb 71f 68f
10:18 13 16 mph 1025.1mb 71f 67f
10:12 9 15 mph 1025.1mb 71f 67f
10:06 8 14 mph 1025.2mb 71f 67f
10:00 9 16 mph 1025.2mb 71f 67f
9:54 11 15 mph 1025.2mb 71f 66f
9:48 10 14 mph 1025.1mb 71f 66f
9:42 9 13 mph 1025.2mb 71f 66f
9:36 8 13 mph 1025.2mb 71f 67f
9:30 9 14 mph 1025.3mb 71f 67f
9:24 10 13 mph 1025.3mb 71f 67f
9:18 11 14 mph 1025.2mb 71f 65f
9:12 9 11 mph 1025.3mb 71f 65f
9:06 10 14 mph 1025.3mb 71f 65f
9:00 9 10 mph 1025.3mb 71f 65f
8:54 8 11 mph 1025.4mb 71f 65f
8:48 7 10 mph 1025.6mb 71f 64f
8:42 6 8 mph 1025.5mb 71f 64f
8:36 5 7 mph 1025.5mb 71f 63f
8:30 3 5 mph 1025.6mb 71f 63f
8:24 3 5 mph 1025.6mb 71f 63f
8:18 2
mph
1025.6mb 71f 63f
8:12 2
mph
1025.7mb 71f 63f
8:06 2 3 mph 1025.7mb 71f 62f
8:00 1 2 mph 1025.8mb 71f 62f
7:54 1 3 mph 1025.8mb 71f 63f
7:48  -  2 mph 1025.8mb 71f 63f
7:42  -  2 mph 1025.8mb 71f 63f
7:36  -  2 mph 1025.7mb 71f 62f
7:30  -  1 mph 1025.6mb 71f 62f
7:24  -  2 mph 1025.6mb 71f 62f
7:18 1 2 mph 1025.5mb 71f 60f
7:12 1 2 mph 1025.5mb 71f 60f
7:06  -  2 mph 1025.5mb 71f 61f
7:00  -  2 mph 1025.6mb 71f 60f
6:54 1 2 mph 1025.7mb 71f 59f
6:48 1 2 mph 1025.7mb 71f 59f
6:42 1 2 mph 1025.6mb 71f 59f
6:36  -  2 mph 1025.6mb 71f 59f
6:30  -  1 mph 1025.6mb 71f 59f
6:24  -  2 mph 1025.5mb 71f 59f
6:18  -  3 mph 1025.5mb 71f 59f
6:12 1 3 mph 1025.4mb 71f 59f
6:06  -  3 mph 1025.3mb 71f 59f
6:00 1 2 mph 1025.3mb 71f 59f
5:54 2 3 mph 1025.2mb 71f 60f
5:48 1 3 mph 1025.2mb 71f 60f
5:42 2 3 mph 1025.2mb 71f 60f
5:36 2 3 mph 1025.2mb 71f 60f
5:30 1 2 mph 1025.2mb 71f 60f
5:24  -  2 mph 1025.1mb 71f 60f
5:18 1 2 mph 1025mb 71f 60f
5:12  -  1 mph 1025mb 71f 60f
5:06  -  2 mph 1025mb 71f 60f
5:00  -  2 mph 1024.9mb 71f 60f
4:54  -  2 mph 1024.9mb 71f 60f
4:48 1 3 mph 1024.8mb 71f 60f
4:42  -  2 mph 1024.8mb 71f 61f
4:36  -  3 mph 1024.7mb 71f 61f
4:30  -  3 mph 1024.6mb 71f 61f
4:24 1 3 mph 1024.6mb 71f 61f
4:18  -  2 mph 1024.7mb 71f 61f
4:12 2 3 mph 1024.7mb 71f 61f
4:06 1 2 mph 1024.7mb 71f 62f
4:00 1 2 mph 1024.8mb 71f 61f
3:54  -  2 mph 1024.8mb 71f 61f
3:48  -  1 mph 1024.8mb 71f 61f
3:42  -  1 mph 1024.8mb 71f 61f
3:36  -  mph 1024.8mb 71f 61f
3:30  -  1 mph 1024.7mb 71f 61f
3:24  -  1 mph 1024.8mb 71f 61f
3:18  -  1 mph 1024.8mb 71f 61f
3:12  -  1 mph 1024.8mb 71f 61f
3:06 1 2 mph 1024.8mb 71f 61f
3:00 1 2 mph 1024.8mb 71f 61f
2:54 1 2 mph 1024.9mb 71f 61f
2:48  -  1 mph 1024.8mb 71f 61f
2:42  -  2 mph 1024.9mb 71f 61f
2:36  -  2 mph 1024.8mb 71f 62f
2:30 2
mph
1024.8mb 71f 62f
2:24 1 2 mph 1024.8mb 71f 62f
2:18 2 3 mph 1024.8mb 71f 62f
2:12 1 3 mph 1024.9mb 71f 62f
2:06 2 5 mph 1024.9mb 71f 62f
2:00 3 5 mph 1024.9mb 71f 62f
1:54 5 6 mph 1024.9mb 71f 62f
1:48 3 5 mph 1024.9mb 71f 62f
1:42 3 5 mph 1025mb 71f 62f
1:36 3 5 mph 1024.9mb 71f 62f
1:30 5
mph
1024.8mb 71f 62f
1:24 2
mph
1024.8mb 71f 62f
1:18 1 2 mph 1024.8mb 71f 63f
1:12 1 2 mph 1024.7mb 71f 63f
1:06 2 3 mph 1024.7mb 71f 63f
1:00 2 3 mph 1024.7mb 71f 63f
12:54 3
mph
1024.6mb 71f 63f
12:48 2 3 mph 1024.7mb 71f 63f
12:42 3 5 mph 1024.6mb 71f 63f
12:36 3 6 mph 1024.6mb 71f 63f
12:30 5
mph
1024.5mb 71f 63f
12:24 3 5 mph 1024.5mb 71f 64f
12:18 3
mph
1024.4mb 71f 64f
12:12 3 5 mph 1024.3mb 71f 64f
12:06 6 7 mph 1024.3mb 71f 64f
12:00 5 6 mph 1024.3mb 71f 64f
Fr 08/29 11:54 6 7 mph 1024.3mb 71f 64f
11:48 6 7 mph 1024.3mb 71f 64f
11:42 5 6 mph 1024.3mb 71f 64f
11:36 5
mph
1024.3mb 71f 64f
11:30 5 6 mph 1024.3mb 71f 64f
11:24 5 6 mph 1024.3mb 71f 64f
11:18 5 6 mph 1024.3mb 71f 64f
11:12 5 6 mph 1024.3mb 71f 64f
11:06 5 6 mph 1024.3mb 71f 64f
11:00 5 7 mph 1024.3mb 71f 65f
10:54 6 8 mph 1024.4mb 71f 65f
10:48 8 9 mph 1024.4mb 71f 65f
10:42 6 8 mph 1024.3mb 71f 65f
10:36 2 5 mph 1024.5mb 71f 65f
10:30 5
mph
1024.5mb 71f 65f
10:24 3 7 mph 1024.5mb 71f 65f
10:18 7 9 mph 1024.5mb 71f 65f
10:12 8 10 mph 1024.5mb 71f 65f
10:06 8 10 mph 1024.3mb 71f 65f
10:00 8 9 mph 1024.3mb 71f 65f
9:54 8 9 mph 1024.1mb 71f 65f
9:48 7 8 mph 1024.1mb 71f 65f
9:42 5 6 mph 1024mb 71f 65f
9:36 3 7 mph 1024mb 71f 65f
9:30 7 8 mph 1024mb 71f 66f
9:24 8 9 mph 1024mb 71f 66f
9:18 8 9 mph 1023.9mb 71f 66f
9:12 7 9 mph 1023.8mb 71f 66f
9:06 8 10 mph 1023.7mb 71f 66f
9:00 9 10 mph 1023.7mb 71f 67f
8:54 8 10 mph 1023.6mb 71f 67f
8:48 7 8 mph 1023.5mb 71f 67f
8:42 6 8 mph 1023.5mb 71f 67f
8:36 5 9 mph 1023.4mb 71f 68f
8:30 6 9 mph 1023.4mb 71f 67f
8:24 6 9 mph 1023.4mb 71f 68f
8:18 6 9 mph 1023.2mb 71f 68f
8:12 7 9 mph 1023.1mb 71f 68f
8:06 5 8 mph 1023mb 71f 68f
8:00 3 8 mph 1023mb 71f 68f
7:54 6 10 mph 1022.9mb 71f 68f
7:48 5 10 mph 1022.9mb 71f 69f
7:42 7 11 mph 1022.8mb 71f 69f
7:36 7 11 mph 1022.8mb 71f 69f
7:30 7 10 mph 1022.8mb 71f 69f
7:24 6 9 mph 1022.7mb 71f 69f
7:18 6 11 mph 1022.6mb 71f 70f
7:12 8 11 mph 1022.5mb 71f 70f
7:06 8 11 mph 1022.4mb 71f 70f
7:00 7 11 mph 1022.4mb 71f 70f
6:54 8 11 mph 1022.2mb 71f 71f
6:48 8 11 mph 1022.2mb 71f 70f
6:42 6 10 mph 1022.1mb 71f 71f
6:36 7 10 mph 1022mb 71f 71f
6:30 7 13 mph 1021.9mb 71f 71f
6:24 8 13 mph 1021.9mb 71f 71f
6:18 6 13 mph 1021.9mb 71f 72f
6:12 8 13 mph 1021.9mb 71f 72f
6:06 7 10 mph 1021.8mb 71f 72f
6:00 8 10 mph 1021.8mb 71f 72f
5:54 9 13 mph 1021.7mb 71f 72f
5:48 9 14 mph 1021.6mb 71f 72f
5:42 8 15 mph 1021.6mb 71f 72f
5:36 10 16 mph 1021.6mb 71f 72f
5:30 10 14 mph 1021.6mb 71f 72f
5:24 10 13 mph 1021.5mb 71f 72f
5:18 11 15 mph 1021.5mb 71f 72f
5:12 13 15 mph 1021.5mb 71f 72f
5:06 13 16 mph 1021.4mb 71f 72f
5:00 11 14 mph 1021.3mb 71f 72f
4:54 10 15 mph 1021.3mb 71f 72f
4:48 11 15 mph 1021.3mb 71f 72f
4:42 10 14 mph 1021.3mb 71f 73f
4:36 11 14 mph 1021.2mb 71f 73f
4:30 8 9 mph 1021.1mb 71f 73f
4:24 8 9 mph 1021mb 71f 73f
4:18 2 6 mph 1021mb 71f 74f
4:12 1 5 mph 1021mb 71f 73f
4:06 2 7 mph 1021.1mb 71f 73f
4:00 5 6 mph 1021mb 71f 73f
3:54 5 7 mph 1020.9mb 71f 73f
3:48 6 10 mph 1021mb 71f 73f
3:42 2 5 mph 1021mb 71f 74f
3:36  -  6 mph 1021.1mb 71f 76f
3:30 2 7 mph 1021.1mb 71f 76f
3:24 3 6 mph 1021.1mb 71f 74f
3:18 2 5 mph 1021.1mb 71f 74f
3:12 3 6 mph 1021.1mb 71f 73f
3:06 3 7 mph 1021.1mb 71f 73f
3:00 2 3 mph 1021.1mb 71f 73f
2:54 1 3 mph 1021.1mb 71f 74f
2:48 2 3 mph 1021.1mb 71f 73f
2:42 3 5 mph 1021mb 71f 73f
2:36 3 7 mph 1021.1mb 71f 72f
2:30 3 6 mph 1021.1mb 71f 72f
2:24 2 6 mph 1021.1mb 71f 73f
2:18 1 6 mph 1021.1mb 71f 73f
2:12 2 7 mph 1021.1mb 71f 73f
2:06 2 6 mph 1021.2mb 71f 72f
2:00 6 8 mph 1021.2mb 71f 72f
1:54 7 8 mph 1021.1mb 71f 72f
1:48  -  3 mph 1021.1mb 71f 75f
1:42 2 6 mph 1021.1mb 71f 74f
1:36 2 7 mph 1021.1mb 71f 74f
1:30 2 7 mph 1021.1mb 71f 74f
1:24 2 7 mph 1021mb 71f 74f
1:18 2 5 mph 1021.1mb 71f 72f
1:12 1 3 mph 1021.1mb 71f 73f
1:06  -  8 mph 1021.1mb 71f 73f
1:00 2 6 mph 1021.1mb 71f 72f
12:54 5 7 mph 1020.9mb 71f 71f
12:48 2 6 mph 1021mb 71f 72f
12:42 3 7 mph 1021mb 71f 71f
12:36 5 6 mph 1021mb 71f 71f
12:30 1 5 mph 1021.1mb 71f 73f
12:24 2 6 mph 1021.2mb 71f 72f
12:18 2 5 mph 1021.2mb 71f 72f
12:12  -  6 mph 1021.1mb 71f 72f
12:06 1 7 mph 1021.2mb 71f 72f
12:00 3 6 mph 1021.1mb 71f 71f
11:54 2 6 mph 1021.1mb 71f 71f
11:48 1 7 mph 1021.1mb 71f 71f
11:42 5 8 mph 1021.2mb 71f 71f
11:36 3 7 mph 1021.1mb 71f 71f
11:30 2 6 mph 1021.1mb 71f 71f
11:24 2 7 mph 1021.1mb 71f 70f
11:18 2 6 mph 1021.1mb 71f 71f
11:12 3 8 mph 1021.1mb 71f 70f
11:06 3 7 mph 1021.1mb 71f 69f
11:00 2 5 mph 1021.1mb 71f 69f
10:54 3 7 mph 1021.1mb 71f 70f
10:48 3 8 mph 1021mb 71f 70f
10:42 2 6 mph 1020.9mb 71f 70f
10:36 3 7 mph 1020.8mb 71f 69f
10:30 2 7 mph 1020.8mb 71f 68f
10:24 3 8 mph 1020.8mb 71f 69f
10:18 3 6 mph 1020.8mb 71f 70f
10:12 1 7 mph 1020.7mb 71f 70f
10:06  -  6 mph 1020.6mb 71f 69f
10:00 2 6 mph 1020.6mb 71f 69f
9:54 2 7 mph 1020.5mb 71f 69f
9:48 1 5 mph 1020.5mb 71f 69f
9:42 2 8 mph 1020.4mb 71f 68f
9:36 2 7 mph 1020.4mb 71f 68f
9:30 3 8 mph 1020.4mb 71f 69f
9:24 3 8 mph 1020.4mb 71f 68f
9:18 3 8 mph 1020.3mb 71f 68f
9:12 3 7 mph 1020.2mb 71f 68f
9:06 6 8 mph 1020.1mb 71f 67f
9:00 8 10 mph 1020.1mb 71f 66f
8:54 6 9 mph 1020.1mb 71f 66f
8:48 8 10 mph 1019.9mb 71f 66f
8:42 8 11 mph 1019.9mb 71f 65f
8:36 7 10 mph 1019.9mb 71f 65f
8:30 7 10 mph 1019.8mb 71f 65f
8:24 8 13 mph 1019.7mb 71f 65f
8:18 6 11 mph 1019.7mb 71f 64f
8:12 8 14 mph 1019.7mb 71f 64f
8:06 7 14 mph 1019.7mb 71f 65f
8:00 6 8 mph 1019.6mb 71f 65f
7:54 6 10 mph 1019.4mb 71f 64f
7:48 5 11 mph 1019.4mb 71f 64f
7:42 6 13 mph 1019.3mb 71f 64f
7:36 8 14 mph 1019.2mb 71f 64f
7:30 6 11 mph 1019.2mb 71f 63f
7:24 6 9 mph 1019.1mb 71f 63f
7:18 7 11 mph 1019mb 71f 62f
7:12 8 11 mph 1018.9mb 71f 62f
7:06 5 9 mph 1018.8mb 71f 62f
7:00 6 8 mph 1018.7mb 71f 62f
6:54 6 7 mph 1018.6mb 71f 62f
6:48 6 8 mph 1018.6mb 71f 62f
6:42 5 7 mph 1018.6mb 71f 62f
6:36 5 8 mph 1018.5mb 71f 61f
6:30 5 9 mph 1018.4mb 71f 61f
6:24 7 8 mph 1018.2mb 71f 61f
6:18 6 8 mph 1018.1mb 71f 61f
6:12 6 10 mph 1018mb 71f 61f
6:06 8 10 mph 1017.9mb 71f 61f
6:00 5 8 mph 1017.8mb 71f 61f
5:54 3 8 mph 1017.8mb 71f 61f
5:48 6 8 mph 1017.6mb 71f 61f
5:42 7 9 mph 1017.5mb 71f 61f
5:36 6 8 mph 1017.4mb 71f 61f
5:30 5 10 mph 1017.3mb 71f 61f
5:24 7 9 mph 1017.2mb 71f 61f
5:18 6 9 mph 1017.2mb 71f 61f
5:12 6 10 mph 1017.1mb 71f 61f
5:06 7 10 mph 1017mb 71f 61f
5:00 8 11 mph 1017mb 71f 61f
4:54 9 16 mph 1017mb 71f 61f
4:48 9 14 mph 1016.8mb 71f 61f
4:42 10 14 mph 1016.8mb 71f 61f
4:36 9 13 mph 1016.8mb 71f 61f
4:30 10 13 mph 1016.7mb 71f 61f
4:24 9 14 mph 1016.7mb 71f 61f
4:18 8 13 mph 1016.7mb 71f 61f
4:12 9 13 mph 1016.6mb 71f 61f
4:06 9 13 mph 1016.6mb 71f 61f
4:00 7 13 mph 1016.6mb 71f 61f
3:54 9 13 mph 1016.6mb 71f 61f
3:48 9 13 mph 1016.6mb 71f 61f
3:42 9 11 mph 1016.6mb 71f 61f
3:36 8 15 mph 1016.5mb 71f 61f
3:30 8 11 mph 1016.5mb 71f 61f
3:24 9 13 mph 1016.5mb 71f 61f
3:18 10 15 mph 1016.4mb 71f 62f
3:12 10 14 mph 1016.5mb 71f 62f
3:06 9 14 mph 1016.4mb 71f 62f
3:00 11 14 mph 1016.5mb 72f 62f
2:54 10 14 mph 1016.3mb 72f 62f
2:48 10 16 mph 1016.3mb 72f 62f
2:42 10 14 mph 1016.3mb 72f 62f
2:36 11 14 mph 1016.3mb 72f 62f
2:30 9 13 mph 1016.4mb 72f 62f
2:24 7 13 mph 1016.4mb 72f 62f
2:18 8 11 mph 1016.2mb 72f 63f
2:12 9 11 mph 1016.3mb 72f 63f
2:06 9 13 mph 1016.2mb 72f 63f
2:00 10 14 mph 1016.2mb 72f 63f
1:54 9 11 mph 1015.9mb 72f 63f
1:48 8 13 mph 1016.1mb 72f 63f
1:42 10 13 mph 1016.1mb 72f 63f
1:36 6 15 mph 1016mb 72f 64f
1:30 10 14 mph 1016mb 72f 64f
1:24 7 13 mph 1015.9mb 72f 64f
1:18 7 14 mph 1016mb 72f 64f
1:12 10 13 mph 1015.9mb 72f 64f
1:06 8 13 mph 1015.8mb 72f 64f
1:00 6 11 mph 1015.8mb 72f 65f
12:54 8 14 mph 1015.6mb 71f 65f
12:48 9 11 mph 1015.5mb 71f 65f
12:42 8 10 mph 1015.5mb 71f 65f
12:36 5 10 mph 1015.5mb 71f 65f
12:30 9 11 mph 1015.3mb 71f 66f
12:24 8 13 mph 1015.4mb 71f 66f
12:18 7 11 mph 1015.3mb 71f 66f
12:12 9 13 mph 1015.3mb 71f 66f
12:06 8 13 mph 1015.1mb 71f 67f
12:00 10 13 mph 1015.2mb 71f 67f
Do 08/28 11:54 7 11 mph 1015.1mb 71f 67f
11:48 7 14 mph 1015.1mb 71f 67f
11:42 10 15 mph 1015mb 71f 67f
11:36 11 15 mph 1014.9mb 71f 67f
11:30 10 20 mph 1014.9mb 71f 67f
11:24 11 17 mph 1014.8mb 71f 68f
11:18 11 15 mph 1014.8mb 71f 68f
11:12 11 14 mph 1014.8mb 71f 68f
11:06 10 13 mph 1014.7mb 71f 68f
11:00 7 11 mph 1014.7mb 71f 68f
10:54 9 17 mph 1014.6mb 71f 68f
10:48 10 16 mph 1014.5mb 71f 69f
10:42 10 14 mph 1014.5mb 71f 69f
10:36 11 14 mph 1014.4mb 71f 69f
10:30 8 11 mph 1014.3mb 71f 69f
10:24 7 11 mph 1014.3mb 71f 69f
10:18 7 8 mph 1014.2mb 71f 69f
10:12 6 10 mph 1014.2mb 71f 69f
10:06 7 11 mph 1014.1mb 71f 69f
10:00 6 8 mph 1013.9mb 71f 69f
9:54 6 10 mph 1013.9mb 71f 70f
9:48 7 10 mph 1013.9mb 71f 70f
9:42 8 10 mph 1013.8mb 71f 70f
9:36 8 11 mph 1013.7mb 71f 70f
9:30 8 10 mph 1013.6mb 72f 71f
9:24 6 10 mph 1013.5mb 72f 71f
9:18 10 13 mph 1013.4mb 72f 71f
9:12 9 11 mph 1013.3mb 72f 71f
9:06 7 11 mph 1013.1mb 72f 71f
9:00 9 14 mph 1013.1mb 72f 71f
8:54 11 15 mph 1013mb 72f 71f
8:48 7 16 mph 1012.9mb 72f 72f
8:42 10 18 mph 1012.8mb 72f 72f
8:36 8 14 mph 1012.8mb 72f 72f
8:30 10 15 mph 1012.7mb 72f 72f
8:24 13 17 mph 1012.5mb 72f 73f
8:18 11 16 mph 1012.4mb 72f 73f
8:12 10 15 mph 1012.3mb 72f 73f
8:06 9 18 mph 1012.2mb 72f 73f
8:00 9 14 mph 1012mb 72f 73f
7:54 9 14 mph 1011.9mb 72f 74f
7:48 10 17 mph 1011.8mb 73f 74f
7:42 9 16 mph 1011.7mb 73f 74f
7:36 9 15 mph 1011.5mb 73f 74f
7:30 11 16 mph 1011.5mb 73f 74f
7:24 11 15 mph 1011.3mb 73f 75f